AEE767 LIBD-LDSP
Flight info
| Callsign | AEE767 |
|---|---|
| Flight time | 0h 28m |
| Altitude | 240 |
| Route | LIBD/25 N0414F240 DCT BD601 DCT PERAV DCT KATTI DCT MODMU DCT KEMIX DCT IDNUM DCT D228E DCT SP402 DCT LDSP/05 |
| Aircraft | A320/M-V/N |
Departure
| Time | 2026-05-07 13:01 |
|---|---|
| Airport | Bari Karol Wojtyła International Airport (LIBD) |
Arrival
| Time | 2026-05-07 13:30 |
|---|---|
| Airport | Split Saint Jerome Airport (LDSP) |
| Time | Latitude | Longitude | Altitude | Speed | Heading |
|---|---|---|---|---|---|
| 2026-05-07 12:47 | 41.13547 | 16.76398 | 142 ft | 0 kts | 160° |
| 2026-05-07 12:56 | 41.13548 | 16.76397 | 141 ft | 2 kts | 160° |
| 2026-05-07 12:56 | 41.13564 | 16.76390 | 141 ft | 2 kts | 134° |
| 2026-05-07 12:56 | 41.13571 | 16.76372 | 141 ft | 2 kts | 67° |
| 2026-05-07 12:57 | 41.13571 | 16.76370 | 141 ft | 0 kts | 59° |
| 2026-05-07 12:57 | 41.13571 | 16.76372 | 141 ft | 0 kts | 66° |
| 2026-05-07 12:57 | 41.13571 | 16.76373 | 141 ft | 2 kts | 66° |
| 2026-05-07 12:57 | 41.13585 | 16.76414 | 139 ft | 8 kts | 64° |
| 2026-05-07 12:58 | 41.13645 | 16.76484 | 133 ft | 16 kts | 23° |
| 2026-05-07 12:58 | 41.13753 | 16.76542 | 127 ft | 19 kts | 22° |
| 2026-05-07 12:58 | 41.13832 | 16.76641 | 119 ft | 17 kts | 64° |
| 2026-05-07 12:58 | 41.13878 | 16.76816 | 117 ft | 23 kts | 71° |
| 2026-05-07 12:59 | 41.13941 | 16.77030 | 114 ft | 27 kts | 71° |
| 2026-05-07 12:59 | 41.14006 | 16.77281 | 110 ft | 25 kts | 69° |
| 2026-05-07 12:59 | 41.14125 | 16.77410 | 101 ft | 3 kts | 12° |
| 2026-05-07 12:59 | 41.14125 | 16.77411 | 101 ft | 0 kts | 12° |
| 2026-05-07 13:00 | 41.14127 | 16.77411 | 102 ft | 2 kts | 12° |
| 2026-05-07 13:00 | 41.14164 | 16.77417 | 101 ft | 9 kts | 358° |
| 2026-05-07 13:00 | 41.14217 | 16.77363 | 99 ft | 12 kts | 267° |
| 2026-05-07 13:00 | 41.14210 | 16.77326 | 101 ft | 0 kts | 253° |
| 2026-05-07 13:01 | 41.14190 | 16.77248 | 103 ft | 33 kts | 250° |
| 2026-05-07 13:01 | 41.14019 | 16.76642 | 120 ft | 104 kts | 250° |
| 2026-05-07 13:01 | 41.13690 | 16.75529 | 252 ft | 145 kts | 242° |
| 2026-05-07 13:01 | 41.13324 | 16.74295 | 952 ft | 145 kts | 240° |
| 2026-05-07 13:02 | 41.12969 | 16.73035 | 1622 ft | 149 kts | 242° |
| 2026-05-07 13:02 | 41.12766 | 16.71577 | 1934 ft | 181 kts | 274° |
| 2026-05-07 13:02 | 41.13476 | 16.70026 | 2286 ft | 221 kts | 320° |
| 2026-05-07 13:02 | 41.15027 | 16.69370 | 2758 ft | 254 kts | 3° |
| 2026-05-07 13:03 | 41.16765 | 16.70123 | 3302 ft | 276 kts | 33° |
| 2026-05-07 13:03 | 41.18480 | 16.71348 | 4231 ft | 285 kts | 17° |
| 2026-05-07 13:03 | 41.20438 | 16.71430 | 5285 ft | 285 kts | 345° |
| 2026-05-07 13:03 | 41.22279 | 16.70478 | 6345 ft | 285 kts | 331° |
| 2026-05-07 13:04 | 41.24015 | 16.69199 | 7351 ft | 286 kts | 327° |
| 2026-05-07 13:04 | 41.25164 | 16.68328 | 8020 ft | 288 kts | 328° |
| 2026-05-07 13:04 | 41.26939 | 16.67078 | 9029 ft | 290 kts | 331° |
| 2026-05-07 13:04 | 41.28779 | 16.65928 | 10013 ft | 294 kts | 333° |
| 2026-05-07 13:05 | 41.30716 | 16.64836 | 10538 ft | 314 kts | 335° |
| 2026-05-07 13:05 | 41.32820 | 16.63731 | 10829 ft | 338 kts | 336° |
| 2026-05-07 13:05 | 41.35097 | 16.62593 | 11147 ft | 358 kts | 336° |
| 2026-05-07 13:05 | 41.37464 | 16.61445 | 11793 ft | 365 kts | 336° |
| 2026-05-07 13:06 | 41.39868 | 16.60293 | 12560 ft | 370 kts | 336° |
| 2026-05-07 13:06 | 41.42294 | 16.59127 | 13373 ft | 373 kts | 336° |
| 2026-05-07 13:06 | 41.44741 | 16.57940 | 14123 ft | 376 kts | 336° |
| 2026-05-07 13:06 | 41.47211 | 16.56730 | 14774 ft | 379 kts | 336° |
| 2026-05-07 13:07 | 41.49699 | 16.55506 | 15420 ft | 383 kts | 336° |
| 2026-05-07 13:07 | 41.52214 | 16.54265 | 16052 ft | 387 kts | 335° |
| 2026-05-07 13:07 | 41.54750 | 16.53012 | 16679 ft | 391 kts | 335° |
| 2026-05-07 13:07 | 41.57317 | 16.51742 | 17319 ft | 395 kts | 335° |
| 2026-05-07 13:08 | 41.59910 | 16.50456 | 17953 ft | 399 kts | 335° |
| 2026-05-07 13:08 | 41.62527 | 16.49162 | 18557 ft | 403 kts | 336° |
| 2026-05-07 13:08 | 41.65173 | 16.47857 | 19124 ft | 407 kts | 336° |
| 2026-05-07 13:08 | 41.67842 | 16.46538 | 19713 ft | 411 kts | 335° |
| 2026-05-07 13:09 | 41.70537 | 16.45204 | 20287 ft | 415 kts | 335° |
| 2026-05-07 13:09 | 41.73252 | 16.43856 | 20850 ft | 418 kts | 335° |
| 2026-05-07 13:09 | 41.75991 | 16.42496 | 21386 ft | 421 kts | 335° |
| 2026-05-07 13:09 | 41.78750 | 16.41127 | 21907 ft | 425 kts | 335° |
| 2026-05-07 13:10 | 41.81533 | 16.39742 | 22412 ft | 428 kts | 335° |
| 2026-05-07 13:10 | 41.84336 | 16.38346 | 22922 ft | 432 kts | 335° |
| 2026-05-07 13:10 | 41.87167 | 16.36935 | 23390 ft | 436 kts | 335° |
| 2026-05-07 13:10 | 41.90026 | 16.35512 | 23816 ft | 440 kts | 335° |
| 2026-05-07 13:11 | 41.92898 | 16.34082 | 23988 ft | 441 kts | 335° |
| 2026-05-07 13:11 | 41.95814 | 16.32623 | 24034 ft | 454 kts | 335° |
| 2026-05-07 13:11 | 41.98807 | 16.31120 | 24025 ft | 462 kts | 335° |
| 2026-05-07 13:11 | 42.01823 | 16.29608 | 24027 ft | 464 kts | 335° |
| 2026-05-07 13:12 | 42.04855 | 16.28089 | 24020 ft | 465 kts | 335° |
| 2026-05-07 13:12 | 42.07883 | 16.26571 | 24021 ft | 465 kts | 335° |
| 2026-05-07 13:12 | 42.10919 | 16.25053 | 24035 ft | 465 kts | 335° |
| 2026-05-07 13:12 | 42.13954 | 16.23536 | 24022 ft | 465 kts | 335° |
| 2026-05-07 13:13 | 42.16987 | 16.22015 | 24024 ft | 465 kts | 335° |
| 2026-05-07 13:13 | 42.20023 | 16.20488 | 24020 ft | 465 kts | 335° |
| 2026-05-07 13:13 | 42.23056 | 16.18957 | 24021 ft | 465 kts | 335° |
| 2026-05-07 13:13 | 42.26089 | 16.17420 | 24022 ft | 465 kts | 335° |
| 2026-05-07 13:14 | 42.29120 | 16.15883 | 24036 ft | 466 kts | 334° |
| 2026-05-07 13:14 | 42.32152 | 16.14342 | 24033 ft | 466 kts | 334° |
| 2026-05-07 13:14 | 42.35187 | 16.12801 | 24034 ft | 466 kts | 335° |
| 2026-05-07 13:14 | 42.38218 | 16.11265 | 24035 ft | 466 kts | 335° |
| 2026-05-07 13:15 | 42.41255 | 16.09729 | 24032 ft | 466 kts | 335° |
| 2026-05-07 13:15 | 42.44249 | 16.08218 | 23764 ft | 468 kts | 335° |
| 2026-05-07 13:15 | 42.47340 | 16.06652 | 23080 ft | 463 kts | 335° |
| 2026-05-07 13:15 | 42.50374 | 16.05229 | 22402 ft | 463 kts | 340° |
| 2026-05-07 13:16 | 42.53531 | 16.04346 | 21764 ft | 463 kts | 347° |
| 2026-05-07 13:16 | 42.56706 | 16.03732 | 21209 ft | 459 kts | 347° |
| 2026-05-07 13:16 | 42.59835 | 16.03125 | 20660 ft | 455 kts | 347° |
| 2026-05-07 13:16 | 42.62956 | 16.02515 | 20120 ft | 451 kts | 347° |
| 2026-05-07 13:17 | 42.66050 | 16.01905 | 19591 ft | 447 kts | 347° |
| 2026-05-07 13:17 | 42.69116 | 16.01299 | 19068 ft | 443 kts | 347° |
| 2026-05-07 13:17 | 42.72157 | 16.00695 | 18566 ft | 440 kts | 347° |
| 2026-05-07 13:17 | 42.75173 | 16.00096 | 18022 ft | 436 kts | 348° |
| 2026-05-07 13:18 | 42.78156 | 15.99504 | 17459 ft | 431 kts | 348° |
| 2026-05-07 13:18 | 42.81113 | 15.98919 | 16877 ft | 427 kts | 348° |
| 2026-05-07 13:18 | 42.84036 | 15.98341 | 16317 ft | 423 kts | 348° |
| 2026-05-07 13:18 | 42.86936 | 15.97765 | 15768 ft | 419 kts | 348° |
| 2026-05-07 13:19 | 42.89811 | 15.97190 | 15225 ft | 414 kts | 348° |
| 2026-05-07 13:19 | 42.92634 | 15.96629 | 14702 ft | 406 kts | 349° |
| 2026-05-07 13:19 | 42.95399 | 15.96086 | 14182 ft | 398 kts | 349° |
| 2026-05-07 13:19 | 42.98105 | 15.95554 | 13743 ft | 388 kts | 349° |
| 2026-05-07 13:20 | 43.00742 | 15.95032 | 13265 ft | 375 kts | 349° |
| 2026-05-07 13:20 | 43.03242 | 15.94534 | 12788 ft | 352 kts | 349° |
| 2026-05-07 13:20 | 43.05598 | 15.94065 | 12334 ft | 333 kts | 348° |
| 2026-05-07 13:20 | 43.07866 | 15.93609 | 11884 ft | 328 kts | 348° |
| 2026-05-07 13:21 | 43.10122 | 15.93151 | 11434 ft | 326 kts | 349° |
| 2026-05-07 13:21 | 43.12320 | 15.92710 | 10991 ft | 312 kts | 347° |
| 2026-05-07 13:21 | 43.14433 | 15.92333 | 10552 ft | 301 kts | 351° |
| 2026-05-07 13:21 | 43.16499 | 15.92252 | 10119 ft | 293 kts | 358° |
| 2026-05-07 13:22 | 43.18507 | 15.92281 | 9663 ft | 284 kts | 358° |
| 2026-05-07 13:22 | 43.20453 | 15.92307 | 9196 ft | 276 kts | 356° |
| 2026-05-07 13:22 | 43.22352 | 15.92329 | 8730 ft | 270 kts | 355° |
| 2026-05-07 13:22 | 43.24185 | 15.92349 | 8280 ft | 264 kts | 357° |
| 2026-05-07 13:23 | 43.26031 | 15.92414 | 7821 ft | 261 kts | 3° |
| 2026-05-07 13:23 | 43.27788 | 15.92802 | 7390 ft | 259 kts | 12° |
| 2026-05-07 13:23 | 43.29494 | 15.93546 | 6949 ft | 256 kts | 21° |
| 2026-05-07 13:23 | 43.31071 | 15.94618 | 6589 ft | 250 kts | 30° |
| 2026-05-07 13:24 | 43.32505 | 15.95987 | 6224 ft | 252 kts | 39° |
| 2026-05-07 13:24 | 43.33791 | 15.97656 | 5800 ft | 257 kts | 48° |
| 2026-05-07 13:24 | 43.34921 | 15.99576 | 5426 ft | 259 kts | 51° |
| 2026-05-07 13:24 | 43.36349 | 16.01039 | 5141 ft | 259 kts | 24° |
| 2026-05-07 13:25 | 43.37987 | 16.02042 | 4834 ft | 257 kts | 33° |
| 2026-05-07 13:25 | 43.39306 | 16.03645 | 4526 ft | 251 kts | 54° |
| 2026-05-07 13:25 | 43.40369 | 16.05542 | 4193 ft | 250 kts | 58° |
| 2026-05-07 13:25 | 43.41407 | 16.07448 | 3860 ft | 246 kts | 59° |
| 2026-05-07 13:26 | 43.42396 | 16.09218 | 3560 ft | 235 kts | 58° |
| 2026-05-07 13:26 | 43.43375 | 16.10960 | 3253 ft | 225 kts | 58° |
| 2026-05-07 13:26 | 43.44308 | 16.12626 | 2958 ft | 215 kts | 57° |
| 2026-05-07 13:26 | 43.45204 | 16.14224 | 2682 ft | 206 kts | 59° |
| 2026-05-07 13:27 | 43.46054 | 16.15742 | 2433 ft | 193 kts | 59° |
| 2026-05-07 13:27 | 43.46857 | 16.17178 | 2167 ft | 186 kts | 62° |
| 2026-05-07 13:27 | 43.47634 | 16.18568 | 1917 ft | 181 kts | 59° |
| 2026-05-07 13:27 | 43.48373 | 16.19890 | 1684 ft | 169 kts | 58° |
| 2026-05-07 13:28 | 43.49043 | 16.21083 | 1488 ft | 146 kts | 61° |
| 2026-05-07 13:28 | 43.49630 | 16.22133 | 1284 ft | 134 kts | 56° |
| 2026-05-07 13:28 | 43.50179 | 16.23122 | 1114 ft | 130 kts | 56° |
| 2026-05-07 13:28 | 43.50717 | 16.24090 | 940 ft | 127 kts | 57° |
| 2026-05-07 13:29 | 43.51258 | 16.25061 | 764 ft | 130 kts | 57° |
| 2026-05-07 13:29 | 43.51805 | 16.26042 | 585 ft | 128 kts | 61° |
| 2026-05-07 13:29 | 43.52345 | 16.27012 | 409 ft | 129 kts | 62° |
| 2026-05-07 13:29 | 43.52894 | 16.27996 | 229 ft | 131 kts | 58° |
| 2026-05-07 13:30 | 43.53446 | 16.28976 | 91 ft | 127 kts | 55° |
| 2026-05-07 13:30 | 43.53800 | 16.29611 | 80 ft | 45 kts | 51° |
| 2026-05-07 13:30 | 43.53918 | 16.29839 | 69 ft | 11 kts | 51° |
| 2026-05-07 13:30 | 43.53951 | 16.29896 | 72 ft | 5 kts | 51° |
| 2026-05-07 13:31 | 43.53987 | 16.29958 | 67 ft | 14 kts | 51° |
| 2026-05-07 13:31 | 43.54010 | 16.30080 | 65 ft | 14 kts | 156° |
| 2026-05-07 13:31 | 43.53905 | 16.30050 | 66 ft | 15 kts | 219° |
| 2026-05-07 13:31 | 43.53882 | 16.30016 | 65 ft | 4 kts | 231° |
| 2026-05-07 13:32 | 43.53843 | 16.29950 | 64 ft | 13 kts | 232° |
| 2026-05-07 13:32 | 43.53797 | 16.29874 | 63 ft | 10 kts | 215° |
| 2026-05-07 13:32 | 43.53766 | 16.29914 | 68 ft | 8 kts | 112° |
| 2026-05-07 13:32 | 43.53761 | 16.29932 | 59 ft | 0 kts | 111° |